Авиационная погода в Ботсфьорде

Регион: 
Погода METAR: 
ENBS 282220Z AUTO 22016KT 9999 NCD 21/14 Q1020
Время наблюдения
2022-06-28T22:20:00Z
Температура C
21.0
Точка росы
14.0
Направление ветра
220
Скорость ветра (узлы)
16
Метео видимость
6.21
Облачность
CLR
Нижняя граница облачности (футы)
Явления погоды
Условия полета
VFR
CLR — нет облаков ниже 3000 м